createdAt,value
2018-06-28T00:01:27.917Z,0.90
2018-06-28T00:03:56.907Z,0.80
2018-06-28T00:06:25.486Z,0.77
2018-06-28T00:08:53.970Z,0.90
2018-06-28T00:11:22.208Z,1.07
2018-06-28T00:13:50.132Z,0.97
2018-06-28T00:16:18.197Z,0.90
2018-06-28T00:18:46.496Z,1.00
2018-06-28T00:21:14.631Z,1.23
2018-06-28T00:23:42.744Z,1.00
2018-06-28T00:26:10.870Z,1.03
2018-06-28T00:28:38.947Z,1.10
2018-06-28T00:31:07.041Z,1.10
2018-06-28T00:33:35.264Z,1.13
2018-06-28T00:36:03.818Z,1.00
2018-06-28T00:38:32.024Z,1.20
2018-06-28T00:41:00.232Z,1.10
2018-06-28T00:43:28.352Z,1.03
2018-06-28T00:45:56.500Z,1.10
2018-06-28T00:48:24.659Z,1.30
2018-06-28T00:50:52.758Z,1.13
2018-06-28T00:53:20.646Z,1.10
2018-06-28T00:55:48.537Z,1.10
2018-06-28T00:58:16.086Z,0.80
2018-06-28T01:00:43.662Z,1.07
2018-06-28T01:03:11.447Z,1.30
2018-06-28T01:05:39.111Z,1.20
2018-06-28T01:08:06.686Z,1.20
2018-06-28T01:10:34.202Z,1.20
2018-06-28T01:13:01.886Z,1.03
2018-06-28T01:15:29.580Z,1.20
2018-06-28T01:17:57.314Z,0.93
2018-06-28T01:20:25.053Z,1.10
2018-06-28T01:22:53.251Z,1.20
2018-06-28T01:25:20.785Z,0.90
2018-06-28T01:27:48.405Z,1.23
2018-06-28T01:30:16.086Z,1.17
2018-06-28T01:32:43.907Z,1.30
2018-06-28T01:35:11.522Z,1.00
2018-06-28T01:37:39.175Z,0.90
2018-06-28T01:40:06.852Z,1.30
2018-06-28T01:42:41.940Z,1.27
2018-06-28T01:45:09.498Z,1.00
2018-06-28T01:47:37.100Z,1.23
2018-06-28T01:50:04.765Z,1.30
2018-06-28T01:52:32.414Z,1.10
2018-06-28T01:54:59.982Z,0.93
2018-06-28T01:57:27.716Z,1.20
2018-06-28T01:59:55.248Z,1.20
2018-06-28T02:02:22.769Z,1.07
2018-06-28T02:04:50.541Z,1.17
2018-06-28T02:07:18.129Z,1.10
2018-06-28T02:09:45.678Z,1.20
2018-06-28T02:12:13.199Z,1.20
2018-06-28T02:14:40.711Z,1.40
2018-06-28T02:17:08.229Z,1.10
2018-06-28T02:19:35.770Z,1.13
2018-06-28T02:22:03.349Z,1.37
2018-06-28T02:24:30.881Z,1.50
2018-06-28T02:26:58.547Z,1.30
2018-06-28T02:29:26.071Z,1.10
2018-06-28T02:31:53.598Z,1.50
2018-06-28T02:34:21.148Z,1.30
2018-06-28T02:36:48.780Z,1.20
2018-06-28T02:39:16.298Z,1.50
2018-06-28T02:41:43.936Z,1.30
2018-06-28T02:44:11.617Z,1.17
2018-06-28T02:46:39.165Z,1.30
2018-06-28T02:49:06.823Z,1.57
2018-06-28T02:51:34.468Z,1.40
2018-06-28T02:54:01.985Z,1.60
2018-06-28T02:56:29.611Z,1.20
2018-06-28T02:58:57.142Z,1.20
2018-06-28T03:01:24.764Z,1.40
2018-06-28T03:03:52.311Z,1.47
2018-06-28T03:06:19.840Z,1.73
2018-06-28T03:08:47.488Z,1.37
2018-06-28T03:11:15.002Z,1.67
2018-06-28T03:13:42.545Z,1.23
2018-06-28T03:16:10.171Z,1.40
2018-06-28T03:18:37.795Z,1.70
2018-06-28T03:21:05.445Z,1.50
2018-06-28T03:23:32.949Z,1.10
2018-06-28T03:26:00.496Z,1.40
2018-06-28T03:28:28.003Z,1.40
2018-06-28T03:30:55.691Z,1.30
2018-06-28T03:33:23.280Z,1.33
2018-06-28T03:35:50.841Z,1.50
2018-06-28T03:38:18.374Z,1.27
2018-06-28T03:40:45.871Z,1.43
2018-06-28T03:43:13.411Z,1.53
2018-06-28T03:45:40.969Z,1.63
2018-06-28T03:48:08.471Z,1.63
2018-06-28T03:50:36.075Z,1.60
2018-06-28T03:53:03.622Z,1.37
2018-06-28T03:55:31.231Z,1.80
2018-06-28T03:57:59.035Z,1.50
2018-06-28T04:00:26.776Z,1.40
2018-06-28T04:02:54.477Z,1.50
2018-06-28T04:05:22.142Z,1.40
2018-06-28T04:07:49.659Z,1.30
2018-06-28T04:10:17.279Z,1.50
2018-06-28T04:12:44.834Z,1.57
2018-06-28T04:15:12.510Z,1.30
2018-06-28T04:17:40.036Z,1.20
2018-06-28T04:20:07.609Z,1.30
2018-06-28T04:22:35.160Z,1.50
2018-06-28T04:25:02.780Z,1.60
2018-06-28T04:27:30.338Z,1.20
2018-06-28T04:29:58.454Z,1.10
2018-06-28T04:32:25.981Z,1.37
2018-06-28T04:34:53.502Z,1.53
2018-06-28T04:37:21.042Z,1.37
2018-06-28T04:39:49.291Z,1.67
2018-06-28T04:42:16.800Z,1.77
2018-06-28T04:44:44.318Z,2.00
2018-06-28T04:47:12.427Z,2.08
2018-06-28T04:49:39.971Z,2.08
2018-06-28T04:52:07.551Z,1.60
2018-06-28T04:54:35.066Z,1.50
2018-06-28T04:57:02.680Z,1.60
2018-06-28T04:59:30.195Z,1.60
2018-06-28T05:01:57.763Z,1.52
2018-06-28T05:04:25.440Z,1.70
2018-06-28T05:06:52.981Z,1.90
2018-06-28T05:09:20.576Z,1.70
2018-06-28T05:11:48.096Z,1.90
2018-06-28T05:14:15.743Z,1.98
2018-06-28T05:16:43.254Z,1.75
2018-06-28T05:19:10.791Z,1.80
2018-06-28T05:21:38.346Z,1.57
2018-06-28T05:24:05.847Z,1.75
2018-06-28T05:26:33.348Z,1.80
2018-06-28T05:29:00.896Z,2.00
2018-06-28T05:31:28.621Z,1.95
2018-06-28T05:33:56.195Z,2.22
2018-06-28T05:36:23.833Z,2.50
2018-06-28T05:38:51.439Z,2.30
2018-06-28T05:41:18.989Z,2.50
2018-06-28T05:43:46.563Z,2.12
2018-06-28T05:46:14.167Z,2.17
2018-06-28T05:48:41.898Z,2.05
2018-06-28T05:51:09.261Z,2.02
2018-06-28T05:53:36.803Z,2.02
2018-06-28T05:56:04.329Z,2.42
2018-06-28T05:58:31.987Z,1.98
2018-06-28T06:00:59.511Z,2.37
2018-06-28T06:03:27.079Z,2.50
2018-06-28T06:05:54.635Z,2.22
2018-06-28T06:08:22.159Z,2.80
2018-06-28T06:10:49.672Z,2.62
2018-06-28T06:13:17.190Z,3.08
2018-06-28T06:15:44.692Z,4.25
2018-06-28T06:18:12.180Z,4.83
2018-06-28T06:20:39.684Z,3.08
2018-06-28T06:23:07.205Z,3.83
2018-06-28T06:25:34.719Z,4.15
2018-06-28T06:28:02.251Z,3.00
2018-06-28T06:30:29.766Z,2.35
2018-06-28T06:32:57.284Z,2.10
2018-06-28T06:35:24.796Z,2.22
2018-06-28T06:37:52.488Z,2.37
2018-06-28T06:40:20.119Z,2.22
2018-06-28T06:42:47.666Z,2.00
2018-06-28T06:45:15.179Z,1.98
2018-06-28T06:47:42.715Z,1.70
2018-06-28T06:50:10.355Z,2.30
2018-06-28T06:52:38.124Z,1.87
2018-06-28T06:55:05.667Z,1.90
2018-06-28T06:57:33.252Z,2.02
2018-06-28T07:00:00.831Z,1.90
2018-06-28T07:02:28.355Z,1.85
2018-06-28T07:04:55.878Z,1.47
2018-06-28T07:07:23.420Z,1.85
2018-06-28T07:09:51.045Z,1.55
2018-06-28T07:12:18.680Z,1.90
2018-06-28T07:14:46.496Z,1.55
2018-06-28T07:17:13.896Z,1.60
2018-06-28T07:19:41.523Z,1.70
2018-06-28T07:22:09.064Z,1.65
2018-06-28T07:24:36.582Z,1.92
2018-06-28T07:27:04.165Z,1.67
2018-06-28T07:29:31.719Z,1.72
2018-06-28T07:31:59.394Z,1.40
2018-06-28T07:34:26.829Z,1.80
2018-06-28T07:36:54.500Z,1.90
2018-06-28T07:39:22.048Z,1.80
2018-06-28T07:41:49.696Z,1.95
2018-06-28T07:44:17.214Z,1.90
2018-06-28T07:46:44.952Z,2.05
2018-06-28T07:49:12.530Z,1.80
2018-06-28T07:51:39.999Z,1.85
2018-06-28T07:54:07.752Z,2.15
2018-06-28T07:56:35.487Z,1.70
2018-06-28T07:59:03.133Z,1.82
2018-06-28T08:01:31.164Z,2.20
2018-06-28T08:03:58.887Z,2.05
2018-06-28T08:06:26.338Z,1.77
2018-06-28T08:08:53.854Z,2.20
2018-06-28T08:11:21.379Z,2.08
2018-06-28T08:13:49.419Z,2.20
2018-06-28T08:16:16.935Z,1.90
2018-06-28T08:18:44.512Z,2.00
2018-06-28T08:21:12.037Z,1.93
2018-06-28T08:23:39.561Z,1.90
2018-06-28T08:26:07.091Z,1.50
2018-06-28T08:28:34.595Z,1.60
2018-06-28T08:31:02.120Z,1.80
2018-06-28T08:33:29.643Z,1.90
2018-06-28T08:35:57.279Z,1.90
2018-06-28T08:38:24.850Z,1.63
2018-06-28T08:40:52.402Z,1.73
2018-06-28T08:43:19.974Z,2.30
2018-06-28T08:45:47.482Z,2.47
2018-06-28T08:48:15.031Z,1.90
2018-06-28T08:50:42.582Z,2.17
2018-06-28T08:53:16.975Z,2.13
2018-06-28T08:55:44.483Z,2.17
2018-06-28T08:58:12.136Z,1.80
2018-06-28T09:00:39.793Z,1.80
2018-06-28T09:03:07.303Z,2.10
2018-06-28T09:05:34.834Z,1.80
2018-06-28T09:08:02.384Z,2.20
2018-06-28T09:10:30.025Z,1.83
2018-06-28T09:12:57.584Z,3.07
2018-06-28T09:15:25.151Z,2.10
2018-06-28T09:17:52.642Z,2.60
2018-06-28T09:20:20.171Z,3.20
2018-06-28T09:22:47.771Z,2.40
2018-06-28T09:25:15.280Z,2.30
2018-06-28T09:27:42.788Z,3.30
2018-06-28T09:30:10.347Z,2.70
2018-06-28T09:32:37.902Z,2.90
2018-06-28T09:35:06.134Z,2.80
2018-06-28T09:37:33.650Z,2.20
2018-06-28T09:40:01.203Z,2.40
2018-06-28T09:42:28.849Z,2.30
2018-06-28T09:44:56.383Z,2.13
2018-06-28T09:47:23.934Z,1.97
2018-06-28T09:49:51.446Z,2.10
2018-06-28T09:52:18.946Z,1.87
2018-06-28T09:54:46.514Z,2.03
2018-06-28T09:57:14.144Z,2.40
2018-06-28T09:59:41.695Z,2.17
2018-06-28T10:02:09.232Z,2.33
2018-06-28T10:04:36.822Z,2.17
2018-06-28T10:07:04.554Z,2.40
2018-06-28T10:09:32.075Z,2.13
2018-06-28T10:11:59.614Z,1.80
2018-06-28T10:14:27.256Z,2.00
2018-06-28T10:16:54.776Z,2.37
2018-06-28T10:19:22.294Z,1.93
2018-06-28T10:21:49.811Z,2.10
2018-06-28T10:24:17.442Z,2.00
2018-06-28T10:26:44.959Z,1.97
2018-06-28T10:29:12.918Z,2.10
2018-06-28T10:31:40.487Z,2.20
2018-06-28T10:34:08.155Z,1.70
2018-06-28T10:36:35.683Z,1.80
2018-06-28T10:39:05.167Z,1.80
2018-06-28T10:41:32.690Z,2.27
2018-06-28T10:44:00.240Z,2.00
2018-06-28T10:46:27.884Z,1.90
2018-06-28T10:48:55.395Z,2.52
2018-06-28T10:51:22.915Z,1.77
2018-06-28T10:53:50.436Z,1.67
2018-06-28T10:56:18.096Z,2.00
2018-06-28T10:58:45.618Z,1.77
2018-06-28T11:01:13.156Z,1.70
2018-06-28T11:03:40.840Z,2.10
2018-06-28T11:06:08.354Z,2.00
2018-06-28T11:08:35.871Z,2.20
2018-06-28T11:11:03.387Z,2.60
2018-06-28T11:13:30.894Z,2.50
2018-06-28T11:15:58.424Z,2.20
2018-06-28T11:18:26.069Z,2.30
2018-06-28T11:20:54.214Z,2.50
2018-06-28T11:23:21.796Z,2.60
2018-06-28T11:25:49.455Z,2.63
2018-06-28T11:28:16.977Z,2.37
2018-06-28T11:30:44.542Z,2.50
2018-06-28T11:33:12.099Z,2.53
2018-06-28T11:35:39.736Z,2.40
2018-06-28T11:38:07.266Z,2.60
2018-06-28T11:40:34.808Z,3.10
2018-06-28T11:43:02.339Z,2.77
2018-06-28T11:45:29.830Z,3.00
2018-06-28T11:47:57.462Z,3.07
2018-06-28T11:50:25.015Z,3.30
2018-06-28T11:52:52.687Z,3.20
2018-06-28T11:55:20.194Z,3.10
2018-06-28T11:57:47.906Z,3.50
2018-06-28T12:00:15.423Z,3.37
2018-06-28T12:02:43.043Z,3.20
2018-06-28T12:05:10.567Z,3.37
2018-06-28T12:07:38.894Z,3.50
2018-06-28T12:10:06.425Z,4.00
2018-06-28T12:12:33.923Z,3.13
2018-06-28T12:15:02.368Z,4.07
2018-06-28T12:17:29.958Z,3.57
2018-06-28T12:19:57.445Z,4.17
2018-06-28T12:22:25.048Z,3.40
2018-06-28T12:24:52.547Z,3.30
2018-06-28T12:27:20.092Z,3.37
2018-06-28T12:29:47.661Z,3.13
2018-06-28T12:32:15.178Z,3.10
2018-06-28T12:34:42.723Z,3.17
2018-06-28T12:37:10.252Z,2.90
2018-06-28T12:39:37.836Z,3.10
2018-06-28T12:42:05.504Z,3.03
2018-06-28T12:44:33.011Z,3.40
2018-06-28T12:47:31.468Z,3.10
2018-06-28T12:49:58.990Z,2.63
2018-06-28T12:52:32.135Z,2.93
2018-06-28T12:54:59.644Z,3.07
2018-06-28T12:57:27.169Z,3.70
2018-06-28T12:59:54.759Z,3.07
2018-06-28T13:02:22.219Z,3.50
2018-06-28T13:04:49.762Z,2.70
2018-06-28T13:07:17.393Z,2.77
2018-06-28T13:09:44.850Z,3.27
2018-06-28T13:12:12.373Z,3.50
2018-06-28T13:14:39.879Z,3.50
2018-06-28T13:17:07.439Z,2.80
2018-06-28T13:19:34.974Z,2.63
2018-06-28T13:22:02.513Z,2.63
2018-06-28T13:24:30.051Z,3.10
2018-06-28T13:26:57.555Z,3.37
2018-06-28T13:29:25.053Z,3.10
2018-06-28T13:31:52.583Z,3.87
2018-06-28T13:34:20.110Z,3.50
2018-06-28T13:36:47.670Z,3.20
2018-06-28T13:39:15.233Z,3.23
2018-06-28T13:41:43.060Z,3.37
2018-06-28T13:44:10.283Z,3.77
2018-06-28T13:46:37.827Z,3.50
2018-06-28T13:49:05.387Z,3.37
2018-06-28T13:51:32.903Z,3.20
2018-06-28T13:54:00.419Z,2.90
2018-06-28T13:56:27.962Z,3.00
2018-06-28T13:58:55.467Z,3.27
2018-06-28T14:01:22.987Z,3.53
2018-06-28T14:03:50.521Z,3.60
2018-06-28T14:06:18.050Z,3.30
2018-06-28T14:08:45.571Z,3.73
2018-06-28T14:11:13.103Z,3.40
2018-06-28T14:13:40.607Z,3.53
2018-06-28T14:16:08.114Z,3.57
2018-06-28T14:18:35.753Z,3.57
2018-06-28T14:21:03.259Z,3.60
2018-06-28T14:23:30.778Z,4.23
2018-06-28T14:25:58.283Z,3.50
2018-06-28T14:28:25.809Z,3.77
2018-06-28T14:30:53.353Z,3.17
2018-06-28T14:33:20.890Z,3.93
2018-06-28T14:35:48.456Z,3.80
2018-06-28T14:38:16.087Z,3.83
2018-06-28T14:40:45.683Z,3.50
2018-06-28T14:43:13.257Z,4.03
2018-06-28T14:45:40.904Z,3.67
2018-06-28T14:48:08.414Z,3.70
2018-06-28T14:50:36.024Z,3.87
2018-06-28T14:53:03.511Z,4.03
2018-06-28T14:55:31.123Z,3.70
2018-06-28T14:57:58.663Z,3.77
2018-06-28T15:00:26.315Z,3.73
2018-06-28T15:02:53.870Z,3.93
2018-06-28T15:05:21.511Z,3.73
2018-06-28T15:07:49.030Z,4.03
2018-06-28T15:10:16.580Z,3.90
2018-06-28T15:12:44.175Z,3.97
2018-06-28T15:15:11.770Z,3.87
2018-06-28T15:17:39.408Z,4.00
2018-06-28T15:20:07.115Z,4.67
2018-06-28T15:22:34.631Z,4.33
2018-06-28T15:25:02.192Z,3.87
2018-06-28T15:27:29.778Z,3.40
2018-06-28T15:29:57.356Z,3.90
2018-06-28T15:32:25.634Z,3.30
2018-06-28T15:34:53.242Z,4.10
2018-06-28T15:37:21.742Z,3.70
2018-06-28T15:39:50.939Z,3.90
2018-06-28T15:42:19.407Z,3.53
2018-06-28T15:44:47.949Z,4.47
2018-06-28T15:47:16.580Z,3.87
2018-06-28T15:49:45.169Z,4.13
2018-06-28T15:52:14.775Z,4.00
2018-06-28T15:54:44.258Z,4.00
2018-06-28T15:57:13.598Z,4.10
2018-06-28T15:59:42.137Z,3.87
2018-06-28T16:02:11.205Z,4.03
2018-06-28T16:04:39.060Z,4.13
2018-06-28T16:07:07.697Z,4.00
2018-06-28T16:09:36.264Z,4.10
2018-06-28T16:12:04.843Z,4.00
2018-06-28T16:14:34.374Z,4.30
2018-06-28T16:17:02.931Z,4.53
2018-06-28T16:19:30.875Z,4.53
2018-06-28T16:22:00.101Z,4.13
2018-06-28T16:24:28.481Z,4.50
2018-06-28T16:26:56.680Z,3.87
2018-06-28T16:29:26.066Z,4.50
2018-06-28T16:31:54.353Z,4.20
2018-06-28T16:34:22.231Z,3.97
2018-06-28T16:36:49.871Z,4.27
2018-06-28T16:39:17.791Z,4.10
2018-06-28T16:41:45.511Z,4.37
2018-06-28T16:44:13.038Z,4.37
2018-06-28T16:46:40.722Z,4.23
2018-06-28T16:49:08.159Z,4.17
2018-06-28T16:51:35.935Z,3.80
2018-06-28T16:54:03.602Z,3.93
2018-06-28T16:56:31.497Z,4.03
2018-06-28T16:58:59.067Z,3.63
2018-06-28T17:01:26.887Z,3.80
2018-06-28T17:03:55.376Z,4.00
2018-06-28T17:06:23.474Z,3.60
2018-06-28T17:08:50.993Z,4.30
2018-06-28T17:11:18.566Z,3.63
2018-06-28T17:13:46.209Z,4.30
2018-06-28T17:16:13.790Z,3.87
2018-06-28T17:18:41.290Z,3.93
2018-06-28T17:21:09.038Z,4.20
2018-06-28T17:23:36.581Z,4.87
2018-06-28T17:26:04.124Z,4.97
2018-06-28T17:28:31.686Z,4.40
2018-06-28T17:30:59.191Z,4.67
2018-06-28T17:33:26.863Z,4.40
2018-06-28T17:35:54.430Z,4.80
2018-06-28T17:38:22.015Z,4.97
2018-06-28T17:40:49.567Z,4.10
2018-06-28T17:43:17.120Z,4.60
2018-06-28T17:45:44.727Z,4.17
2018-06-28T17:48:12.280Z,4.90
2018-06-28T17:50:39.803Z,3.93
2018-06-28T17:53:07.402Z,3.70
2018-06-28T17:55:34.975Z,3.80
2018-06-28T17:58:02.537Z,3.60
2018-06-28T18:00:30.068Z,3.70
2018-06-28T18:02:57.597Z,4.00
2018-06-28T18:05:25.115Z,3.97
2018-06-28T18:07:52.751Z,3.40
2018-06-28T18:10:20.343Z,8.63
2018-06-28T18:12:47.881Z,4.93
2018-06-28T18:15:15.470Z,4.33
2018-06-28T18:17:42.935Z,4.33
2018-06-28T18:20:10.687Z,4.50
2018-06-28T18:22:38.224Z,5.23
2018-06-28T18:25:05.782Z,4.53
2018-06-28T18:27:33.315Z,4.40
2018-06-28T18:30:00.830Z,5.10
2018-06-28T18:32:28.369Z,3.73
2018-06-28T18:34:55.930Z,4.27
2018-06-28T18:37:23.456Z,3.63
2018-06-28T18:39:51.006Z,3.53
2018-06-28T18:42:18.878Z,3.77
2018-06-28T18:44:46.376Z,4.10
2018-06-28T18:47:13.967Z,4.27
2018-06-28T18:49:41.487Z,3.80
2018-06-28T18:52:09.030Z,4.90
2018-06-28T18:54:36.588Z,4.40
2018-06-28T18:57:04.194Z,3.90
2018-06-28T18:59:31.848Z,3.80
2018-06-28T19:01:59.573Z,3.27
2018-06-28T19:04:27.190Z,3.17
2018-06-28T19:06:54.831Z,3.20
2018-06-28T19:09:26.974Z,2.93
2018-06-28T19:11:54.587Z,3.07
2018-06-28T19:14:27.911Z,2.90
2018-06-28T19:16:56.346Z,3.27
2018-06-28T19:19:24.132Z,3.40
2018-06-28T19:21:57.287Z,3.93
2018-06-28T19:24:25.003Z,4.10
2018-06-28T19:26:52.555Z,3.97
2018-06-28T19:29:25.677Z,3.77
2018-06-28T19:31:58.782Z,3.97
2018-06-28T19:34:26.412Z,3.27
2018-06-28T19:36:53.984Z,3.53
2018-06-28T19:39:27.177Z,3.03
2018-06-28T19:42:00.386Z,3.40
2018-06-28T19:44:27.919Z,3.23
2018-06-28T19:46:55.435Z,3.87
2018-06-28T19:49:28.555Z,3.00
2018-06-28T19:52:01.650Z,3.23
2018-06-28T19:54:29.326Z,3.00
2018-06-28T19:56:57.476Z,3.30
2018-06-28T19:59:25.540Z,2.67
2018-06-28T20:04:04.939Z,2.80
2018-06-28T20:06:32.819Z,2.30
2018-06-28T20:09:00.387Z,2.60
2018-06-28T20:11:27.946Z,2.23
2018-06-28T20:14:01.220Z,2.83
2018-06-28T20:16:34.451Z,2.77
2018-06-28T20:19:08.384Z,2.37
2018-06-28T20:21:35.910Z,3.20
2018-06-28T20:24:03.422Z,2.70
2018-06-28T20:26:36.575Z,3.00
2018-06-28T20:29:09.751Z,3.70
2018-06-28T20:31:43.386Z,3.20
2018-06-28T20:34:12.040Z,2.83
2018-06-28T20:36:39.624Z,3.27
2018-06-28T20:39:07.578Z,3.10
2018-06-28T20:41:35.194Z,2.43
2018-06-28T20:44:02.922Z,2.50
2018-06-28T20:46:30.478Z,3.00
2018-06-28T20:48:58.039Z,2.70
2018-06-28T20:51:25.578Z,2.50
2018-06-28T20:53:53.119Z,2.87
2018-06-28T20:56:21.520Z,2.73
2018-06-28T20:58:49.114Z,3.20
2018-06-28T21:01:16.655Z,2.77
2018-06-28T21:03:44.362Z,3.03
2018-06-28T21:06:11.961Z,3.10
2018-06-28T21:08:39.744Z,2.80
2018-06-28T21:11:07.609Z,2.60
2018-06-28T21:13:35.538Z,2.77
2018-06-28T21:16:03.062Z,2.80
2018-06-28T21:18:31.134Z,3.20
2018-06-28T21:20:58.646Z,2.90
2018-06-28T21:23:26.185Z,2.73
2018-06-28T21:25:53.845Z,2.50
2018-06-28T21:28:21.370Z,2.40
2018-06-28T21:30:48.988Z,2.43
2018-06-28T21:33:16.543Z,2.93
2018-06-28T21:35:44.200Z,2.80
2018-06-28T21:38:11.930Z,3.53
2018-06-28T21:40:39.536Z,2.60
2018-06-28T21:43:07.045Z,3.20
2018-06-28T21:45:34.570Z,3.00
2018-06-28T21:48:02.063Z,3.53
2018-06-28T21:50:29.566Z,3.13
2018-06-28T21:52:57.165Z,2.93
2018-06-28T21:55:24.700Z,3.10
2018-06-28T21:57:52.219Z,3.50
2018-06-28T22:00:26.443Z,3.23
2018-06-28T22:02:54.083Z,3.60
2018-06-28T22:05:21.621Z,2.70
2018-06-28T22:07:49.227Z,2.80
2018-06-28T22:10:16.846Z,3.13
2018-06-28T22:12:44.391Z,3.47
2018-06-28T22:15:23.616Z,3.20
2018-06-28T22:17:51.509Z,3.00
2018-06-28T22:20:19.278Z,2.83
2018-06-28T22:22:46.911Z,2.67
2018-06-28T22:25:14.551Z,3.00
2018-06-28T22:27:42.139Z,2.77
2018-06-28T22:30:09.770Z,2.63
2018-06-28T22:32:37.308Z,2.73
2018-06-28T22:35:04.933Z,2.60
2018-06-28T22:37:32.460Z,2.50
2018-06-28T22:40:00.103Z,2.97
2018-06-28T22:42:29.156Z,2.63
2018-06-28T22:44:57.083Z,2.90
2018-06-28T22:47:24.710Z,3.03
2018-06-28T22:49:52.302Z,2.77
2018-06-28T22:52:20.036Z,2.57
2018-06-28T22:54:47.840Z,2.83
2018-06-28T22:57:15.516Z,3.37
2018-06-28T22:59:43.406Z,2.47
2018-06-28T23:02:11.127Z,2.90
2018-06-28T23:04:38.858Z,2.80
2018-06-28T23:07:06.569Z,2.40
2018-06-28T23:09:34.196Z,2.60
2018-06-28T23:12:01.822Z,2.53
2018-06-28T23:14:29.520Z,2.77
2018-06-28T23:16:57.070Z,2.30
2018-06-28T23:19:24.588Z,2.17
2018-06-28T23:21:52.231Z,2.63
2018-06-28T23:24:19.754Z,2.60
2018-06-28T23:26:47.267Z,2.63
2018-06-28T23:29:14.786Z,2.97
2018-06-28T23:31:42.378Z,2.50
2018-06-28T23:34:09.892Z,3.20
2018-06-28T23:36:37.447Z,2.47
2018-06-28T23:39:07.643Z,2.50
2018-06-28T23:41:35.253Z,3.10
2018-06-28T23:44:03.011Z,2.53
2018-06-28T23:46:30.558Z,2.60
2018-06-28T23:48:58.081Z,2.60
2018-06-28T23:51:25.586Z,2.37
2018-06-28T23:53:53.155Z,2.60
2018-06-28T23:56:20.808Z,2.30
2018-06-28T23:58:48.374Z,2.80
